sensor_id;sensor_type;location;lat;lon;timestamp;temperature;humidity
52919;DHT22;38793;52.690;6.812;2023-07-29T00:00:40;18.90;99.90
52919;DHT22;38793;52.690;6.812;2023-07-29T00:03:05;18.90;99.90
52919;DHT22;38793;52.690;6.812;2023-07-29T00:05:32;18.90;99.90
52919;DHT22;38793;52.690;6.812;2023-07-29T00:07:58;18.80;99.90
52919;DHT22;38793;52.690;6.812;2023-07-29T00:10:23;18.80;99.90
52919;DHT22;38793;52.690;6.812;2023-07-29T00:12:49;18.80;99.90
52919;DHT22;38793;52.690;6.812;2023-07-29T00:15:14;18.80;99.90
52919;DHT22;38793;52.690;6.812;2023-07-29T00:17:40;18.80;99.90
52919;DHT22;38793;52.690;6.812;2023-07-29T00:20:06;18.70;99.90
52919;DHT22;38793;52.690;6.812;2023-07-29T00:22:31;18.70;99.90
52919;DHT22;38793;52.690;6.812;2023-07-29T00:24:57;18.70;99.90
52919;DHT22;38793;52.690;6.812;2023-07-29T00:27:23;18.70;99.90
52919;DHT22;38793;52.690;6.812;2023-07-29T00:29:49;18.60;99.90
52919;DHT22;38793;52.690;6.812;2023-07-29T00:32:15;18.60;99.90
52919;DHT22;38793;52.690;6.812;2023-07-29T00:34:40;18.60;99.90
52919;DHT22;38793;52.690;6.812;2023-07-29T00:37:06;18.60;99.90
52919;DHT22;38793;52.690;6.812;2023-07-29T00:39:32;18.60;99.90
52919;DHT22;38793;52.690;6.812;2023-07-29T00:41:58;18.50;99.90
52919;DHT22;38793;52.690;6.812;2023-07-29T00:44:23;18.50;99.90
52919;DHT22;38793;52.690;6.812;2023-07-29T00:46:52;18.50;99.90
52919;DHT22;38793;52.690;6.812;2023-07-29T00:49:19;18.40;99.90
52919;DHT22;38793;52.690;6.812;2023-07-29T00:51:45;18.40;99.90
52919;DHT22;38793;52.690;6.812;2023-07-29T00:54:10;18.40;99.90
52919;DHT22;38793;52.690;6.812;2023-07-29T00:56:37;18.40;99.90
52919;DHT22;38793;52.690;6.812;2023-07-29T00:59:03;18.40;99.90
52919;DHT22;38793;52.690;6.812;2023-07-29T01:01:30;18.30;99.90
52919;DHT22;38793;52.690;6.812;2023-07-29T01:03:56;18.30;99.90
52919;DHT22;38793;52.690;6.812;2023-07-29T01:09:20;18.30;99.90
52919;DHT22;38793;52.690;6.812;2023-07-29T01:12:09;18.30;99.90
52919;DHT22;38793;52.690;6.812;2023-07-29T01:14:42;18.20;99.90
52919;DHT22;38793;52.690;6.812;2023-07-29T01:17:17;18.20;99.90
52919;DHT22;38793;52.690;6.812;2023-07-29T01:20:07;18.20;99.90
52919;DHT22;38793;52.690;6.812;2023-07-29T01:22:34;18.20;99.90
52919;DHT22;38793;52.690;6.812;2023-07-29T01:25:00;18.20;99.90
52919;DHT22;38793;52.690;6.812;2023-07-29T01:27:26;18.10;99.90
52919;DHT22;38793;52.690;6.812;2023-07-29T01:29:53;18.10;99.90
52919;DHT22;38793;52.690;6.812;2023-07-29T01:33:02;18.10;99.90
52919;DHT22;38793;52.690;6.812;2023-07-29T01:35:45;18.10;99.90
52919;DHT22;38793;52.690;6.812;2023-07-29T01:38:18;18.10;99.90
52919;DHT22;38793;52.690;6.812;2023-07-29T01:40:45;18.10;99.90
52919;DHT22;38793;52.690;6.812;2023-07-29T01:43:12;18.10;99.90
52919;DHT22;38793;52.690;6.812;2023-07-29T01:45:38;18.10;99.90
52919;DHT22;38793;52.690;6.812;2023-07-29T01:48:05;18.10;99.90
52919;DHT22;38793;52.690;6.812;2023-07-29T01:50:30;18.10;99.90
52919;DHT22;38793;52.690;6.812;2023-07-29T01:52:58;18.10;99.90
52919;DHT22;38793;52.690;6.812;2023-07-29T01:55:23;18.10;99.90
52919;DHT22;38793;52.690;6.812;2023-07-29T01:57:49;18.10;99.90
52919;DHT22;38793;52.690;6.812;2023-07-29T02:00:15;18.10;99.90
52919;DHT22;38793;52.690;6.812;2023-07-29T02:02:41;18.00;99.90
52919;DHT22;38793;52.690;6.812;2023-07-29T02:05:06;18.10;99.90
52919;DHT22;38793;52.690;6.812;2023-07-29T02:07:32;18.00;99.90
52919;DHT22;38793;52.690;6.812;2023-07-29T02:09:58;18.00;99.90
52919;DHT22;38793;52.690;6.812;2023-07-29T02:12:24;18.00;99.90
52919;DHT22;38793;52.690;6.812;2023-07-29T02:14:49;18.00;99.90
52919;DHT22;38793;52.690;6.812;2023-07-29T02:17:15;17.90;99.90
52919;DHT22;38793;52.690;6.812;2023-07-29T02:19:41;17.90;99.90
52919;DHT22;38793;52.690;6.812;2023-07-29T02:22:06;17.90;99.90
52919;DHT22;38793;52.690;6.812;2023-07-29T02:24:32;17.90;99.90
52919;DHT22;38793;52.690;6.812;2023-07-29T02:26:57;18.00;99.90
52919;DHT22;38793;52.690;6.812;2023-07-29T02:29:23;17.90;99.90
52919;DHT22;38793;52.690;6.812;2023-07-29T02:31:50;18.00;99.90
52919;DHT22;38793;52.690;6.812;2023-07-29T02:34:16;17.90;99.90
52919;DHT22;38793;52.690;6.812;2023-07-29T02:36:41;18.00;99.90
52919;DHT22;38793;52.690;6.812;2023-07-29T02:39:07;18.00;99.90
52919;DHT22;38793;52.690;6.812;2023-07-29T02:41:32;18.00;99.90
52919;DHT22;38793;52.690;6.812;2023-07-29T02:43:58;18.00;99.90
52919;DHT22;38793;52.690;6.812;2023-07-29T02:46:24;17.90;99.90
52919;DHT22;38793;52.690;6.812;2023-07-29T02:48:50;18.00;99.90
52919;DHT22;38793;52.690;6.812;2023-07-29T02:51:16;17.90;99.90
52919;DHT22;38793;52.690;6.812;2023-07-29T02:53:42;17.90;99.90
52919;DHT22;38793;52.690;6.812;2023-07-29T02:56:08;17.90;99.90
52919;DHT22;38793;52.690;6.812;2023-07-29T02:58:36;17.90;99.90
52919;DHT22;38793;52.690;6.812;2023-07-29T03:01:03;17.90;99.90
52919;DHT22;38793;52.690;6.812;2023-07-29T03:03:29;17.80;99.90
52919;DHT22;38793;52.690;6.812;2023-07-29T03:06:06;17.80;99.90
52919;DHT22;38793;52.690;6.812;2023-07-29T03:08:31;17.80;99.90
52919;DHT22;38793;52.690;6.812;2023-07-29T03:10:58;17.80;99.90
52919;DHT22;38793;52.690;6.812;2023-07-29T03:13:23;17.70;99.90
52919;DHT22;38793;52.690;6.812;2023-07-29T03:15:49;17.70;99.90
52919;DHT22;38793;52.690;6.812;2023-07-29T03:18:15;17.70;99.90
52919;DHT22;38793;52.690;6.812;2023-07-29T03:20:41;17.60;99.90
52919;DHT22;38793;52.690;6.812;2023-07-29T03:23:07;17.60;99.90
52919;DHT22;38793;52.690;6.812;2023-07-29T03:25:32;17.60;99.90
52919;DHT22;38793;52.690;6.812;2023-07-29T03:27:58;17.60;99.90
52919;DHT22;38793;52.690;6.812;2023-07-29T03:30:24;17.60;99.90
52919;DHT22;38793;52.690;6.812;2023-07-29T03:32:50;17.60;99.90
52919;DHT22;38793;52.690;6.812;2023-07-29T03:35:16;17.50;99.90
52919;DHT22;38793;52.690;6.812;2023-07-29T03:37:42;17.50;99.90
52919;DHT22;38793;52.690;6.812;2023-07-29T03:40:07;17.50;99.90
52919;DHT22;38793;52.690;6.812;2023-07-29T03:42:35;17.50;99.90
52919;DHT22;38793;52.690;6.812;2023-07-29T03:45:00;17.40;99.90
52919;DHT22;38793;52.690;6.812;2023-07-29T03:47:26;17.40;99.90
52919;DHT22;38793;52.690;6.812;2023-07-29T03:49:52;17.40;99.90
52919;DHT22;38793;52.690;6.812;2023-07-29T03:52:17;17.40;99.90
52919;DHT22;38793;52.690;6.812;2023-07-29T03:54:43;17.50;99.90
52919;DHT22;38793;52.690;6.812;2023-07-29T03:57:08;17.50;99.90
52919;DHT22;38793;52.690;6.812;2023-07-29T03:59:34;17.40;99.90
52919;DHT22;38793;52.690;6.812;2023-07-29T04:01:59;17.40;99.90
52919;DHT22;38793;52.690;6.812;2023-07-29T04:04:25;17.50;99.90
52919;DHT22;38793;52.690;6.812;2023-07-29T04:06:51;17.50;99.90
52919;DHT22;38793;52.690;6.812;2023-07-29T04:09:17;17.40;99.90
52919;DHT22;38793;52.690;6.812;2023-07-29T04:11:43;17.50;99.90
52919;DHT22;38793;52.690;6.812;2023-07-29T04:14:08;17.50;99.90
52919;DHT22;38793;52.690;6.812;2023-07-29T04:16:34;17.50;99.90
52919;DHT22;38793;52.690;6.812;2023-07-29T04:18:59;17.50;99.90
52919;DHT22;38793;52.690;6.812;2023-07-29T04:21:25;17.50;99.90
52919;DHT22;38793;52.690;6.812;2023-07-29T04:23:51;17.50;99.90
52919;DHT22;38793;52.690;6.812;2023-07-29T04:26:16;17.50;99.90
52919;DHT22;38793;52.690;6.812;2023-07-29T04:28:42;17.50;99.90
52919;DHT22;38793;52.690;6.812;2023-07-29T04:31:08;17.40;99.90
52919;DHT22;38793;52.690;6.812;2023-07-29T04:33:33;17.40;99.90
52919;DHT22;38793;52.690;6.812;2023-07-29T04:35:59;17.40;99.90
52919;DHT22;38793;52.690;6.812;2023-07-29T04:38:31;17.50;99.90
52919;DHT22;38793;52.690;6.812;2023-07-29T04:40:58;17.40;99.90
52919;DHT22;38793;52.690;6.812;2023-07-29T04:43:30;17.40;99.90
52919;DHT22;38793;52.690;6.812;2023-07-29T04:45:56;17.40;99.90
52919;DHT22;38793;52.690;6.812;2023-07-29T04:48:22;17.50;99.90
52919;DHT22;38793;52.690;6.812;2023-07-29T04:50:48;17.50;99.90
52919;DHT22;38793;52.690;6.812;2023-07-29T04:53:13;17.50;99.90
52919;DHT22;38793;52.690;6.812;2023-07-29T04:55:41;17.50;99.90
52919;DHT22;38793;52.690;6.812;2023-07-29T04:58:07;17.50;99.90
52919;DHT22;38793;52.690;6.812;2023-07-29T05:00:33;17.50;99.90
52919;DHT22;38793;52.690;6.812;2023-07-29T05:02:59;17.50;99.90
52919;DHT22;38793;52.690;6.812;2023-07-29T05:05:24;17.40;99.90
52919;DHT22;38793;52.690;6.812;2023-07-29T05:07:50;17.40;99.90
52919;DHT22;38793;52.690;6.812;2023-07-29T05:10:16;17.40;99.90
52919;DHT22;38793;52.690;6.812;2023-07-29T05:12:41;17.40;99.90
52919;DHT22;38793;52.690;6.812;2023-07-29T05:15:07;17.40;99.90
52919;DHT22;38793;52.690;6.812;2023-07-29T05:17:33;17.30;99.90
52919;DHT22;38793;52.690;6.812;2023-07-29T05:19:59;17.30;99.90
52919;DHT22;38793;52.690;6.812;2023-07-29T05:22:24;17.30;99.90
52919;DHT22;38793;52.690;6.812;2023-07-29T05:24:50;17.30;99.90
52919;DHT22;38793;52.690;6.812;2023-07-29T05:27:16;17.30;99.90
52919;DHT22;38793;52.690;6.812;2023-07-29T05:29:41;17.30;99.90
52919;DHT22;38793;52.690;6.812;2023-07-29T05:32:07;17.30;99.90
52919;DHT22;38793;52.690;6.812;2023-07-29T05:34:33;17.30;99.90
52919;DHT22;38793;52.690;6.812;2023-07-29T05:36:58;17.30;99.90
52919;DHT22;38793;52.690;6.812;2023-07-29T05:39:24;17.30;99.90
52919;DHT22;38793;52.690;6.812;2023-07-29T05:41:49;17.40;99.90
52919;DHT22;38793;52.690;6.812;2023-07-29T05:44:15;17.40;99.90
52919;DHT22;38793;52.690;6.812;2023-07-29T05:46:41;17.40;99.90
52919;DHT22;38793;52.690;6.812;2023-07-29T05:49:06;17.40;99.90
52919;DHT22;38793;52.690;6.812;2023-07-29T05:51:32;17.40;99.90
52919;DHT22;38793;52.690;6.812;2023-07-29T05:53:57;17.50;99.90
52919;DHT22;38793;52.690;6.812;2023-07-29T05:56:23;17.50;99.90
52919;DHT22;38793;52.690;6.812;2023-07-29T05:58:48;17.50;99.90
52919;DHT22;38793;52.690;6.812;2023-07-29T06:01:15;17.50;99.90
52919;DHT22;38793;52.690;6.812;2023-07-29T06:03:40;17.60;99.90
52919;DHT22;38793;52.690;6.812;2023-07-29T06:06:06;17.60;99.90
52919;DHT22;38793;52.690;6.812;2023-07-29T06:08:31;17.60;99.90
52919;DHT22;38793;52.690;6.812;2023-07-29T06:11:00;17.70;99.90
52919;DHT22;38793;52.690;6.812;2023-07-29T06:13:25;17.70;99.90
52919;DHT22;38793;52.690;6.812;2023-07-29T06:15:51;17.70;99.90
52919;DHT22;38793;52.690;6.812;2023-07-29T06:18:16;17.80;99.90
52919;DHT22;38793;52.690;6.812;2023-07-29T06:20:42;17.80;99.90
52919;DHT22;38793;52.690;6.812;2023-07-29T06:23:08;17.90;99.90
52919;DHT22;38793;52.690;6.812;2023-07-29T06:25:34;18.00;99.90
52919;DHT22;38793;52.690;6.812;2023-07-29T06:28:00;18.00;99.90
52919;DHT22;38793;52.690;6.812;2023-07-29T06:30:25;18.10;99.90
52919;DHT22;38793;52.690;6.812;2023-07-29T06:32:51;18.00;99.90
52919;DHT22;38793;52.690;6.812;2023-07-29T06:35:16;18.00;99.90
52919;DHT22;38793;52.690;6.812;2023-07-29T06:37:42;18.10;99.90
52919;DHT22;38793;52.690;6.812;2023-07-29T06:40:08;18.10;99.90
52919;DHT22;38793;52.690;6.812;2023-07-29T06:42:34;18.10;99.90
52919;DHT22;38793;52.690;6.812;2023-07-29T06:44:59;18.10;99.90
52919;DHT22;38793;52.690;6.812;2023-07-29T06:47:25;18.10;99.90
52919;DHT22;38793;52.690;6.812;2023-07-29T06:49:50;18.20;99.90
52919;DHT22;38793;52.690;6.812;2023-07-29T06:52:16;18.20;99.90
52919;DHT22;38793;52.690;6.812;2023-07-29T06:54:41;18.20;99.90
52919;DHT22;38793;52.690;6.812;2023-07-29T06:57:07;18.30;99.90
52919;DHT22;38793;52.690;6.812;2023-07-29T06:59:33;18.30;99.90
52919;DHT22;38793;52.690;6.812;2023-07-29T07:01:59;18.40;99.90
52919;DHT22;38793;52.690;6.812;2023-07-29T07:04:25;18.40;99.90
52919;DHT22;38793;52.690;6.812;2023-07-29T07:06:51;18.50;99.90
52919;DHT22;38793;52.690;6.812;2023-07-29T07:09:16;18.50;99.90
52919;DHT22;38793;52.690;6.812;2023-07-29T07:11:42;18.50;99.90
52919;DHT22;38793;52.690;6.812;2023-07-29T07:14:07;18.60;99.90
52919;DHT22;38793;52.690;6.812;2023-07-29T07:16:33;18.60;99.90
52919;DHT22;38793;52.690;6.812;2023-07-29T07:19:00;18.70;99.90
52919;DHT22;38793;52.690;6.812;2023-07-29T07:21:26;18.70;99.90
52919;DHT22;38793;52.690;6.812;2023-07-29T07:23:52;18.70;99.90
52919;DHT22;38793;52.690;6.812;2023-07-29T07:26:17;18.70;99.90
52919;DHT22;38793;52.690;6.812;2023-07-29T07:28:43;18.80;99.90
52919;DHT22;38793;52.690;6.812;2023-07-29T07:31:08;19.00;99.90
52919;DHT22;38793;52.690;6.812;2023-07-29T07:33:34;19.00;99.90
52919;DHT22;38793;52.690;6.812;2023-07-29T07:35:59;19.10;99.90
52919;DHT22;38793;52.690;6.812;2023-07-29T07:38:25;19.20;99.90
52919;DHT22;38793;52.690;6.812;2023-07-29T07:40:54;19.20;99.90
52919;DHT22;38793;52.690;6.812;2023-07-29T07:43:21;19.30;99.90
52919;DHT22;38793;52.690;6.812;2023-07-29T07:45:46;19.40;99.90
52919;DHT22;38793;52.690;6.812;2023-07-29T07:48:12;19.40;99.90
52919;DHT22;38793;52.690;6.812;2023-07-29T07:50:38;19.40;99.90
52919;DHT22;38793;52.690;6.812;2023-07-29T07:53:04;19.50;99.90
52919;DHT22;38793;52.690;6.812;2023-07-29T07:55:29;19.60;99.90
52919;DHT22;38793;52.690;6.812;2023-07-29T07:57:55;19.60;99.90
52919;DHT22;38793;52.690;6.812;2023-07-29T08:00:21;19.60;99.90
52919;DHT22;38793;52.690;6.812;2023-07-29T08:02:46;19.70;99.90
52919;DHT22;38793;52.690;6.812;2023-07-29T08:05:12;19.70;99.90
52919;DHT22;38793;52.690;6.812;2023-07-29T08:07:37;19.80;99.90
52919;DHT22;38793;52.690;6.812;2023-07-29T08:10:03;19.80;99.90
52919;DHT22;38793;52.690;6.812;2023-07-29T08:12:29;19.90;99.90
52919;DHT22;38793;52.690;6.812;2023-07-29T08:14:54;19.90;99.90
52919;DHT22;38793;52.690;6.812;2023-07-29T08:17:20;19.90;99.90
52919;DHT22;38793;52.690;6.812;2023-07-29T08:19:45;19.90;99.90
52919;DHT22;38793;52.690;6.812;2023-07-29T08:22:11;19.90;99.90
52919;DHT22;38793;52.690;6.812;2023-07-29T08:24:36;19.90;99.90
52919;DHT22;38793;52.690;6.812;2023-07-29T08:27:02;20.00;99.90
52919;DHT22;38793;52.690;6.812;2023-07-29T08:29:27;20.10;99.90
52919;DHT22;38793;52.690;6.812;2023-07-29T08:31:53;20.10;99.90
52919;DHT22;38793;52.690;6.812;2023-07-29T08:34:20;20.10;99.90
52919;DHT22;38793;52.690;6.812;2023-07-29T08:36:46;20.10;99.90
52919;DHT22;38793;52.690;6.812;2023-07-29T08:39:11;20.10;99.90
52919;DHT22;38793;52.690;6.812;2023-07-29T08:41:54;20.20;99.90
52919;DHT22;38793;52.690;6.812;2023-07-29T08:44:23;20.20;99.90
52919;DHT22;38793;52.690;6.812;2023-07-29T08:46:50;20.20;99.90
52919;DHT22;38793;52.690;6.812;2023-07-29T08:49:18;20.30;99.90
52919;DHT22;38793;52.690;6.812;2023-07-29T08:51:49;20.30;99.90
52919;DHT22;38793;52.690;6.812;2023-07-29T08:54:15;20.40;99.90
52919;DHT22;38793;52.690;6.812;2023-07-29T08:56:41;20.40;99.90
52919;DHT22;38793;52.690;6.812;2023-07-29T08:59:09;20.50;99.90
52919;DHT22;38793;52.690;6.812;2023-07-29T09:01:34;20.50;99.90
52919;DHT22;38793;52.690;6.812;2023-07-29T09:04:00;20.60;99.90
52919;DHT22;38793;52.690;6.812;2023-07-29T09:06:26;20.60;99.90
52919;DHT22;38793;52.690;6.812;2023-07-29T09:08:54;20.60;99.90
52919;DHT22;38793;52.690;6.812;2023-07-29T09:11:22;20.60;99.90
52919;DHT22;38793;52.690;6.812;2023-07-29T09:13:47;20.60;99.90
52919;DHT22;38793;52.690;6.812;2023-07-29T09:16:13;20.70;99.90
52919;DHT22;38793;52.690;6.812;2023-07-29T09:18:40;20.80;99.90
52919;DHT22;38793;52.690;6.812;2023-07-29T09:21:05;21.00;99.90
52919;DHT22;38793;52.690;6.812;2023-07-29T09:23:44;21.20;99.90
52919;DHT22;38793;52.690;6.812;2023-07-29T09:26:10;21.30;99.90
52919;DHT22;38793;52.690;6.812;2023-07-29T09:28:39;21.50;99.90
52919;DHT22;38793;52.690;6.812;2023-07-29T09:31:05;21.50;99.90
52919;DHT22;38793;52.690;6.812;2023-07-29T09:33:34;21.60;99.90
52919;DHT22;38793;52.690;6.812;2023-07-29T09:36:09;21.60;99.90
52919;DHT22;38793;52.690;6.812;2023-07-29T09:38:35;21.60;99.90
52919;DHT22;38793;52.690;6.812;2023-07-29T09:41:01;21.60;99.90
52919;DHT22;38793;52.690;6.812;2023-07-29T09:43:32;21.60;99.90
52919;DHT22;38793;52.690;6.812;2023-07-29T09:46:01;21.60;99.90
52919;DHT22;38793;52.690;6.812;2023-07-29T09:48:28;21.60;99.90
52919;DHT22;38793;52.690;6.812;2023-07-29T09:50:57;21.50;99.90
52919;DHT22;38793;52.690;6.812;2023-07-29T09:53:24;21.40;99.90
52919;DHT22;38793;52.690;6.812;2023-07-29T09:55:49;21.30;99.90
52919;DHT22;38793;52.690;6.812;2023-07-29T09:58:19;21.30;99.90
52919;DHT22;38793;52.690;6.812;2023-07-29T10:00:46;21.30;99.90
52919;DHT22;38793;52.690;6.812;2023-07-29T10:03:12;21.30;99.90
52919;DHT22;38793;52.690;6.812;2023-07-29T10:05:40;21.40;99.90
52919;DHT22;38793;52.690;6.812;2023-07-29T10:08:06;21.50;99.90
52919;DHT22;38793;52.690;6.812;2023-07-29T10:10:33;21.50;99.90
52919;DHT22;38793;52.690;6.812;2023-07-29T10:12:58;21.50;99.90
52919;DHT22;38793;52.690;6.812;2023-07-29T10:15:24;21.60;99.90
52919;DHT22;38793;52.690;6.812;2023-07-29T10:17:52;21.60;99.90
52919;DHT22;38793;52.690;6.812;2023-07-29T10:20:17;21.60;99.90
52919;DHT22;38793;52.690;6.812;2023-07-29T10:22:43;21.60;99.90
52919;DHT22;38793;52.690;6.812;2023-07-29T10:25:22;21.60;99.90
52919;DHT22;38793;52.690;6.812;2023-07-29T10:27:53;21.70;99.90
52919;DHT22;38793;52.690;6.812;2023-07-29T10:30:20;21.70;99.90
52919;DHT22;38793;52.690;6.812;2023-07-29T10:32:46;21.80;99.90
52919;DHT22;38793;52.690;6.812;2023-07-29T10:35:13;21.70;99.90
52919;DHT22;38793;52.690;6.812;2023-07-29T10:37:39;21.70;99.90
52919;DHT22;38793;52.690;6.812;2023-07-29T10:40:10;21.80;99.90
52919;DHT22;38793;52.690;6.812;2023-07-29T10:42:37;21.90;99.90
52919;DHT22;38793;52.690;6.812;2023-07-29T10:45:19;22.00;99.90
52919;DHT22;38793;52.690;6.812;2023-07-29T10:47:46;22.00;99.90
52919;DHT22;38793;52.690;6.812;2023-07-29T10:50:20;22.10;99.90
52919;DHT22;38793;52.690;6.812;2023-07-29T10:52:52;22.20;99.90
52919;DHT22;38793;52.690;6.812;2023-07-29T10:55:33;22.30;99.90
52919;DHT22;38793;52.690;6.812;2023-07-29T11:00:32;22.30;99.90
52919;DHT22;38793;52.690;6.812;2023-07-29T11:03:05;22.30;99.90
52919;DHT22;38793;52.690;6.812;2023-07-29T11:05:48;22.40;99.90
52919;DHT22;38793;52.690;6.812;2023-07-29T11:08:28;22.20;99.90
52919;DHT22;38793;52.690;6.812;2023-07-29T11:11:04;22.10;99.90
52919;DHT22;38793;52.690;6.812;2023-07-29T12:56:26;23.30;99.90
52919;DHT22;38793;52.690;6.812;2023-07-29T12:58:52;23.30;99.90
52919;DHT22;38793;52.690;6.812;2023-07-29T13:01:18;23.20;99.90
52919;DHT22;38793;52.690;6.812;2023-07-29T13:03:47;23.00;99.90
52919;DHT22;38793;52.690;6.812;2023-07-29T13:06:13;23.00;99.90
52919;DHT22;38793;52.690;6.812;2023-07-29T13:08:39;23.00;99.90
52919;DHT22;38793;52.690;6.812;2023-07-29T13:11:05;23.00;99.90
52919;DHT22;38793;52.690;6.812;2023-07-29T13:13:31;23.00;99.90
52919;DHT22;38793;52.690;6.812;2023-07-29T13:15:57;23.00;99.90
52919;DHT22;38793;52.690;6.812;2023-07-29T13:18:23;22.90;99.90
52919;DHT22;38793;52.690;6.812;2023-07-29T13:20:48;22.80;99.90
52919;DHT22;38793;52.690;6.812;2023-07-29T13:23:15;22.90;99.90
52919;DHT22;38793;52.690;6.812;2023-07-29T13:25:40;23.00;99.90
52919;DHT22;38793;52.690;6.812;2023-07-29T13:28:06;23.00;99.90
52919;DHT22;38793;52.690;6.812;2023-07-29T13:30:32;23.00;99.90
52919;DHT22;38793;52.690;6.812;2023-07-29T13:32:58;23.00;99.90
52919;DHT22;38793;52.690;6.812;2023-07-29T13:35:24;23.00;99.90
52919;DHT22;38793;52.690;6.812;2023-07-29T13:37:49;22.90;99.90
52919;DHT22;38793;52.690;6.812;2023-07-29T13:40:15;22.70;99.90
52919;DHT22;38793;52.690;6.812;2023-07-29T13:42:40;22.90;99.90
52919;DHT22;38793;52.690;6.812;2023-07-29T13:45:06;23.00;99.90
52919;DHT22;38793;52.690;6.812;2023-07-29T13:47:32;23.30;99.90
52919;DHT22;38793;52.690;6.812;2023-07-29T13:49:58;23.50;99.90
52919;DHT22;38793;52.690;6.812;2023-07-29T13:52:24;23.70;99.90
52919;DHT22;38793;52.690;6.812;2023-07-29T13:54:49;23.80;99.90
52919;DHT22;38793;52.690;6.812;2023-07-29T13:57:15;23.90;99.90
52919;DHT22;38793;52.690;6.812;2023-07-29T13:59:41;24.00;99.90
52919;DHT22;38793;52.690;6.812;2023-07-29T14:02:06;24.00;99.90
52919;DHT22;38793;52.690;6.812;2023-07-29T14:04:32;24.00;99.90
52919;DHT22;38793;52.690;6.812;2023-07-29T14:06:58;24.00;99.90
52919;DHT22;38793;52.690;6.812;2023-07-29T14:09:25;24.00;99.90
52919;DHT22;38793;52.690;6.812;2023-07-29T14:11:51;24.00;99.90
52919;DHT22;38793;52.690;6.812;2023-07-29T14:14:16;23.80;99.90
52919;DHT22;38793;52.690;6.812;2023-07-29T14:16:42;23.60;99.90
52919;DHT22;38793;52.690;6.812;2023-07-29T14:19:07;23.40;99.90
52919;DHT22;38793;52.690;6.812;2023-07-29T14:21:33;23.20;99.90
52919;DHT22;38793;52.690;6.812;2023-07-29T14:23:59;23.10;99.90
52919;DHT22;38793;52.690;6.812;2023-07-29T14:26:24;23.00;99.90
52919;DHT22;38793;52.690;6.812;2023-07-29T14:28:50;23.00;99.90
52919;DHT22;38793;52.690;6.812;2023-07-29T14:31:16;23.00;99.90
52919;DHT22;38793;52.690;6.812;2023-07-29T14:33:44;22.90;99.90
52919;DHT22;38793;52.690;6.812;2023-07-29T14:36:10;22.70;99.90
52919;DHT22;38793;52.690;6.812;2023-07-29T14:38:36;22.70;99.90
52919;DHT22;38793;52.690;6.812;2023-07-29T14:41:02;22.60;99.90
52919;DHT22;38793;52.690;6.812;2023-07-29T14:43:29;22.50;99.90
52919;DHT22;38793;52.690;6.812;2023-07-29T14:45:55;22.50;99.90
52919;DHT22;38793;52.690;6.812;2023-07-29T14:48:20;22.50;99.90
52919;DHT22;38793;52.690;6.812;2023-07-29T14:50:46;22.40;99.90
52919;DHT22;38793;52.690;6.812;2023-07-29T14:53:11;22.40;99.90
52919;DHT22;38793;52.690;6.812;2023-07-29T14:55:38;22.40;99.90
52919;DHT22;38793;52.690;6.812;2023-07-29T14:58:03;22.50;99.90
52919;DHT22;38793;52.690;6.812;2023-07-29T15:00:29;22.50;99.90
52919;DHT22;38793;52.690;6.812;2023-07-29T15:02:54;22.50;99.90
52919;DHT22;38793;52.690;6.812;2023-07-29T15:05:20;22.50;99.90
52919;DHT22;38793;52.690;6.812;2023-07-29T15:07:46;22.50;99.90
52919;DHT22;38793;52.690;6.812;2023-07-29T15:10:14;22.40;99.90
52919;DHT22;38793;52.690;6.812;2023-07-29T15:12:41;22.20;99.90
52919;DHT22;38793;52.690;6.812;2023-07-29T15:15:06;22.00;99.90
52919;DHT22;38793;52.690;6.812;2023-07-29T15:17:32;21.90;99.90
52919;DHT22;38793;52.690;6.812;2023-07-29T15:19:58;21.70;99.90
52919;DHT22;38793;52.690;6.812;2023-07-29T15:22:23;21.60;99.90
52919;DHT22;38793;52.690;6.812;2023-07-29T15:24:49;21.40;99.90
52919;DHT22;38793;52.690;6.812;2023-07-29T15:27:14;21.30;99.90
52919;DHT22;38793;52.690;6.812;2023-07-29T15:29:40;21.10;99.90
52919;DHT22;38793;52.690;6.812;2023-07-29T15:32:05;21.00;99.90
52919;DHT22;38793;52.690;6.812;2023-07-29T15:34:31;21.10;99.90
52919;DHT22;38793;52.690;6.812;2023-07-29T15:37:00;21.10;99.90
52919;DHT22;38793;52.690;6.812;2023-07-29T15:39:25;21.10;99.90
52919;DHT22;38793;52.690;6.812;2023-07-29T15:41:51;21.10;99.90
52919;DHT22;38793;52.690;6.812;2023-07-29T15:44:17;21.20;99.90
52919;DHT22;38793;52.690;6.812;2023-07-29T15:46:43;21.20;99.90
52919;DHT22;38793;52.690;6.812;2023-07-29T15:49:09;21.20;99.90
52919;DHT22;38793;52.690;6.812;2023-07-29T15:51:35;21.20;99.90
52919;DHT22;38793;52.690;6.812;2023-07-29T15:54:00;21.30;99.90
52919;DHT22;38793;52.690;6.812;2023-07-29T15:56:29;21.40;99.90
52919;DHT22;38793;52.690;6.812;2023-07-29T15:58:55;21.50;99.90
52919;DHT22;38793;52.690;6.812;2023-07-29T16:01:24;21.60;99.90
52919;DHT22;38793;52.690;6.812;2023-07-29T16:03:50;21.60;99.90
52919;DHT22;38793;52.690;6.812;2023-07-29T16:06:15;21.70;99.90
52919;DHT22;38793;52.690;6.812;2023-07-29T16:08:41;21.70;99.90
52919;DHT22;38793;52.690;6.812;2023-07-29T16:11:06;21.80;99.90
52919;DHT22;38793;52.690;6.812;2023-07-29T16:13:32;21.80;99.90
52919;DHT22;38793;52.690;6.812;2023-07-29T16:15:57;21.90;99.90
52919;DHT22;38793;52.690;6.812;2023-07-29T16:18:24;21.90;99.90
52919;DHT22;38793;52.690;6.812;2023-07-29T16:20:49;21.90;99.90
52919;DHT22;38793;52.690;6.812;2023-07-29T16:23:15;21.90;99.90
52919;DHT22;38793;52.690;6.812;2023-07-29T16:25:41;21.90;99.90
52919;DHT22;38793;52.690;6.812;2023-07-29T16:28:06;21.80;99.90
52919;DHT22;38793;52.690;6.812;2023-07-29T16:30:32;21.90;99.90
52919;DHT22;38793;52.690;6.812;2023-07-29T16:32:58;21.80;99.90
52919;DHT22;38793;52.690;6.812;2023-07-29T16:35:24;21.80;99.90
52919;DHT22;38793;52.690;6.812;2023-07-29T16:37:49;21.80;99.90
52919;DHT22;38793;52.690;6.812;2023-07-29T16:40:15;21.70;99.90
52919;DHT22;38793;52.690;6.812;2023-07-29T16:42:41;21.70;99.90
52919;DHT22;38793;52.690;6.812;2023-07-29T16:45:06;21.50;99.90
52919;DHT22;38793;52.690;6.812;2023-07-29T16:47:32;21.50;99.90
52919;DHT22;38793;52.690;6.812;2023-07-29T16:49:58;21.40;99.90
52919;DHT22;38793;52.690;6.812;2023-07-29T16:52:25;21.20;99.90
52919;DHT22;38793;52.690;6.812;2023-07-29T16:54:50;21.10;99.90
52919;DHT22;38793;52.690;6.812;2023-07-29T16:57:16;21.00;99.90
52919;DHT22;38793;52.690;6.812;2023-07-29T16:59:41;20.90;99.90
52919;DHT22;38793;52.690;6.812;2023-07-29T17:02:07;21.00;99.90
52919;DHT22;38793;52.690;6.812;2023-07-29T17:04:33;21.00;99.90
52919;DHT22;38793;52.690;6.812;2023-07-29T17:06:58;21.00;99.90
52919;DHT22;38793;52.690;6.812;2023-07-29T17:09:24;21.10;99.90
52919;DHT22;38793;52.690;6.812;2023-07-29T17:11:49;21.10;99.90
52919;DHT22;38793;52.690;6.812;2023-07-29T17:14:15;21.20;99.90